Time;durP1;ratioP1;P1;durP2;ratioP2;P2;SDS_P1;SDS_P2;PMS_P1;PMS_P2;Temp;Humidity;BMP_temperature;BMP_pressure;BME280_temperature;BME280_humidity;BME280_pressure;Samples;Min_cycle;Max_cycle;Signal;HPM_P1;HPM_P2
2022/06/07 00:01:09;;;;;;;9.38;5.60;;;;;;;;;;5031790;28;20061;-64
2022/06/07 00:03:35;;;;;;;9.80;5.18;;;;;;;;;;5031749;28;20018;-63
2022/06/07 00:06:01;;;;;;;7.28;5.13;;;;;;;;;;5031550;28;20060;-64
2022/06/07 00:08:30;;;;;;;9.45;5.63;;;;;;;;;;5031753;28;20548;-63
2022/06/07 00:10:56;;;;;;;8.10;5.45;;;;;;;;;;5031714;28;20108;-64
2022/06/07 00:13:22;;;;;;;7.07;5.45;;;;;;;;;;5031494;28;20033;-63
2022/06/07 00:15:48;;;;;;;7.43;5.53;;;;;;;;;;5031565;28;20021;-63
2022/06/07 00:18:14;;;;;;;10.77;5.32;;;;;;;;;;5031121;28;20142;-62
2022/06/07 00:20:41;;;;;;;8.15;5.53;;;;;;;;;;5031216;28;20029;-63
2022/06/07 00:23:09;;;;;;;7.03;5.15;;;;;;;;;;5031321;28;20370;-65
2022/06/07 00:25:35;;;;;;;8.63;5.93;;;;;;;;;;5031261;28;20393;-63
2022/06/07 00:28:01;;;;;;;8.63;5.80;;;;;;;;;;5031063;28;20492;-62
2022/06/07 00:30:29;;;;;;;8.75;5.85;;;;;;;;;;5031251;28;20108;-63
2022/06/07 00:32:55;;;;;;;9.95;6.45;;;;;;;;;;5031002;28;20405;-63
2022/06/07 00:35:21;;;;;;;7.53;5.88;;;;;;;;;;5030903;28;20017;-63
2022/06/07 00:37:47;;;;;;;6.70;5.53;;;;;;;;;;5031121;28;20040;-64
2022/06/07 00:40:14;;;;;;;8.82;5.70;;;;;;;;;;5030669;28;20145;-63
2022/06/07 00:42:40;;;;;;;8.43;5.82;;;;;;;;;;5031061;28;20504;-64
2022/06/07 00:45:06;;;;;;;7.93;5.47;;;;;;;;;;5031035;28;20113;-63
2022/06/07 00:47:33;;;;;;;10.18;5.50;;;;;;;;;;5030885;28;20080;-63
2022/06/07 00:50:06;;;;;;;8.27;5.60;;;;;;;;;;5030870;28;20477;-64
2022/06/07 00:52:34;;;;;;;8.98;5.20;;;;;;;;;;5031200;28;20032;-63
2022/06/07 00:55:01;;;;;;;6.07;5.45;;;;;;;;;;5030938;28;20084;-64
2022/06/07 00:57:28;;;;;;;8.80;5.70;;;;;;;;;;5035188;28;20021;-63
2022/06/07 00:59:54;;;;;;;8.13;5.88;;;;;;;;;;5034994;28;20033;-63
2022/06/07 01:02:21;;;;;;;8.38;5.47;;;;;;;;;;5035262;28;20386;-64
2022/06/07 01:04:47;;;;;;;9.85;5.63;;;;;;;;;;5035170;28;20029;-63
2022/06/07 01:12:43;;;;;;;7.32;5.70;;;;;;;;;;5035144;28;20105;-63
2022/06/07 01:15:10;;;;;;;8.35;5.72;;;;;;;;;;5035078;28;20049;-64
2022/06/07 01:17:36;;;;;;;8.50;5.35;;;;;;;;;;5035027;28;20079;-63
2022/06/07 01:20:03;;;;;;;9.57;5.55;;;;;;;;;;5034676;28;20039;-61
2022/06/07 01:22:29;;;;;;;9.60;5.85;;;;;;;;;;5034541;28;20488;-65
2022/06/07 01:24:55;;;;;;;7.95;5.25;;;;;;;;;;5034695;28;20037;-64
2022/06/07 01:27:22;;;;;;;8.70;5.35;;;;;;;;;;5034730;28;20064;-64
2022/06/07 01:29:48;;;;;;;8.98;5.80;;;;;;;;;;5034568;28;20025;-63
2022/06/07 01:32:14;;;;;;;8.50;5.68;;;;;;;;;;5034649;28;20056;-65
2022/06/07 01:34:41;;;;;;;7.45;5.78;;;;;;;;;;5034631;28;20036;-62
2022/06/07 01:37:08;;;;;;;7.90;5.45;;;;;;;;;;5034551;28;20022;-64
2022/06/07 01:42:20;;;;;;;8.20;6.20;;;;;;;;;;5034123;28;20052;-64
2022/06/07 01:44:47;;;;;;;9.40;5.63;;;;;;;;;;5034419;28;20017;-65
2022/06/07 01:47:15;;;;;;;8.75;5.47;;;;;;;;;;5034228;28;20055;-63
2022/06/07 01:49:41;;;;;;;10.32;5.90;;;;;;;;;;5033781;28;20026;-65
2022/06/07 01:52:08;;;;;;;7.38;5.50;;;;;;;;;;5033944;28;20028;-63
2022/06/07 01:54:34;;;;;;;11.65;5.75;;;;;;;;;;5033935;28;20489;-64
2022/06/07 01:57:00;;;;;;;10.10;6.05;;;;;;;;;;5033916;28;20053;-63
2022/06/07 01:59:26;;;;;;;9.02;5.72;;;;;;;;;;5033811;28;20029;-64
2022/06/07 02:01:53;;;;;;;9.57;6.03;;;;;;;;;;5034677;28;20025;-63
2022/06/07 02:04:22;;;;;;;10.55;5.85;;;;;;;;;;5035407;28;20057;-63
2022/06/07 02:06:52;;;;;;;7.75;6.22;;;;;;;;;;5033899;28;20079;-64
2022/06/07 02:09:18;;;;;;;7.15;5.63;;;;;;;;;;5033261;28;20081;-61
2022/06/07 02:11:45;;;;;;;11.27;5.75;;;;;;;;;;5033664;28;20030;-63
2022/06/07 02:14:11;;;;;;;9.50;5.63;;;;;;;;;;5033618;28;20025;-61
2022/06/07 02:16:38;;;;;;;10.68;5.95;;;;;;;;;;5033693;28;20061;-62
2022/06/07 02:19:04;;;;;;;10.55;6.05;;;;;;;;;;5033344;28;20476;-63
2022/06/07 02:21:31;;;;;;;6.95;5.72;;;;;;;;;;5033576;28;20026;-62
2022/06/07 02:23:57;;;;;;;7.72;5.78;;;;;;;;;;5033902;28;20421;-61
2022/06/07 02:26:25;;;;;;;8.45;5.68;;;;;;;;;;5033427;28;20072;-62
2022/06/07 02:28:54;;;;;;;8.30;6.45;;;;;;;;;;5033566;28;20029;-63
2022/06/07 02:31:21;;;;;;;9.13;6.63;;;;;;;;;;5033277;28;20032;-64
2022/06/07 02:33:47;;;;;;;9.75;5.72;;;;;;;;;;5033407;28;20474;-63
2022/06/07 02:36:14;;;;;;;10.52;6.68;;;;;;;;;;5033244;28;20064;-63
2022/06/07 02:38:40;;;;;;;10.45;6.35;;;;;;;;;;5033096;28;20057;-64
2022/06/07 02:41:08;;;;;;;13.20;6.20;;;;;;;;;;5033070;28;20538;-62
2022/06/07 02:43:34;;;;;;;12.57;6.72;;;;;;;;;;5033118;28;20080;-62
2022/06/07 02:46:00;;;;;;;10.20;6.13;;;;;;;;;;5033296;28;20407;-62
2022/06/07 02:48:26;;;;;;;8.77;5.97;;;;;;;;;;5033072;28;20032;-63
2022/06/07 02:50:52;;;;;;;8.38;5.82;;;;;;;;;;5033189;28;20033;-63
2022/06/07 02:53:19;;;;;;;10.88;6.13;;;;;;;;;;5032932;28;20026;-63
2022/06/07 02:55:45;;;;;;;10.23;6.38;;;;;;;;;;5033226;28;20107;-62
2022/06/07 02:58:11;;;;;;;11.02;5.97;;;;;;;;;;5032866;28;20105;-63
2022/06/07 03:00:37;;;;;;;7.70;6.10;;;;;;;;;;5032972;28;20083;-63
2022/06/07 03:03:03;;;;;;;7.10;5.72;;;;;;;;;;5032764;28;20026;-64
2022/06/07 03:05:29;;;;;;;10.55;6.00;;;;;;;;;;5032668;28;20040;-63
2022/06/07 03:07:56;;;;;;;8.23;5.75;;;;;;;;;;5032586;28;20466;-63
2022/06/07 03:10:22;;;;;;;9.02;6.13;;;;;;;;;;5032289;28;20576;-64
2022/06/07 03:12:48;;;;;;;9.77;5.65;;;;;;;;;;5032449;28;20163;-63
2022/06/07 03:15:14;;;;;;;7.65;6.10;;;;;;;;;;5032433;28;20097;-62
2022/06/07 03:17:41;;;;;;;13.48;6.40;;;;;;;;;;5032295;28;20030;-64
2022/06/07 03:20:08;;;;;;;11.18;6.00;;;;;;;;;;5031044;28;20067;-62
2022/06/07 03:22:35;;;;;;;10.45;6.50;;;;;;;;;;5032217;28;20029;-62
2022/06/07 03:25:05;;;;;;;12.38;6.38;;;;;;;;;;5030837;28;20366;-63
2022/06/07 03:27:31;;;;;;;11.65;6.20;;;;;;;;;;5031796;28;20469;-63
2022/06/07 03:29:58;;;;;;;13.07;6.35;;;;;;;;;;5032244;28;20111;-62
2022/06/07 03:32:25;;;;;;;8.25;6.00;;;;;;;;;;5032198;28;20032;-64
2022/06/07 03:34:51;;;;;;;7.63;5.97;;;;;;;;;;5031805;28;20022;-62
2022/06/07 03:37:17;;;;;;;9.95;5.88;;;;;;;;;;5032103;28;20036;-64
2022/06/07 03:39:43;;;;;;;11.93;6.15;;;;;;;;;;5031669;28;20398;-63
2022/06/07 03:42:10;;;;;;;7.88;5.65;;;;;;;;;;5032061;28;20485;-63
2022/06/07 03:44:36;;;;;;;9.48;5.45;;;;;;;;;;5031815;28;20029;-63
2022/06/07 03:47:02;;;;;;;8.57;5.43;;;;;;;;;;5031881;28;20025;-63
2022/06/07 03:49:28;;;;;;;9.18;5.90;;;;;;;;;;5031883;28;20464;-63
2022/06/07 03:51:54;;;;;;;8.70;5.47;;;;;;;;;;5031984;28;20127;-63
2022/06/07 03:54:20;;;;;;;9.35;5.53;;;;;;;;;;5031935;28;20544;-63
2022/06/07 03:56:46;;;;;;;11.20;5.65;;;;;;;;;;5031951;28;20504;-64
2022/06/07 03:59:12;;;;;;;9.40;5.85;;;;;;;;;;5031690;28;20025;-62
2022/06/07 04:01:38;;;;;;;7.70;5.20;;;;;;;;;;5031781;28;20036;-63
2022/06/07 04:04:07;;;;;;;6.65;5.38;;;;;;;;;;5031732;28;20367;-63
2022/06/07 04:06:41;;;;;;;8.20;5.47;;;;;;;;;;5031701;28;20519;-63
2022/06/07 04:09:07;;;;;;;8.55;5.50;;;;;;;;;;5031386;28;20159;-63
2022/06/07 04:11:34;;;;;;;8.10;5.60;;;;;;;;;;5031522;28;20496;-63
2022/06/07 04:14:00;;;;;;;11.27;5.50;;;;;;;;;;5031597;28;20419;-64
2022/06/07 04:16:27;;;;;;;7.90;5.28;;;;;;;;;;5031872;28;20029;-62
2022/06/07 04:18:56;;;;;;;9.13;4.88;;;;;;;;;;5031364;28;20402;-62
2022/06/07 04:21:23;;;;;;;10.68;5.25;;;;;;;;;;5029854;28;20422;-63
2022/06/07 04:23:49;;;;;;;8.57;5.43;;;;;;;;;;5031474;28;20097;-62
2022/06/07 04:26:18;;;;;;;9.75;5.40;;;;;;;;;;5031162;28;20417;-62
2022/06/07 04:28:44;;;;;;;7.70;4.93;;;;;;;;;;5031159;28;20021;-63
2022/06/07 04:31:16;;;;;;;10.02;5.50;;;;;;;;;;5030804;28;20351;-62
2022/06/07 04:33:44;;;;;;;8.50;5.80;;;;;;;;;;5030775;28;20134;-64
2022/06/07 04:36:11;;;;;;;11.25;5.63;;;;;;;;;;5031515;28;20121;-62
2022/06/07 04:38:37;;;;;;;12.10;5.82;;;;;;;;;;5030911;28;20033;-64
2022/06/07 04:41:07;;;;;;;9.60;5.50;;;;;;;;;;5030909;28;20476;-63
2022/06/07 04:43:33;;;;;;;7.45;5.30;;;;;;;;;;5030770;28;20037;-63
2022/06/07 04:46:07;;;;;;;8.73;5.53;;;;;;;;;;5030648;28;20033;-62
2022/06/07 04:48:33;;;;;;;8.13;4.95;;;;;;;;;;5030790;28;20025;-63
2022/06/07 04:51:06;;;;;;;10.80;5.25;;;;;;;;;;5030855;28;20080;-62
2022/06/07 04:53:32;;;;;;;5.70;4.75;;;;;;;;;;5031097;28;20021;-63
2022/06/07 04:55:59;;;;;;;6.63;4.30;;;;;;;;;;5030924;28;20053;-64
2022/06/07 04:58:25;;;;;;;6.80;4.70;;;;;;;;;;5030902;28;20389;-62
2022/06/07 05:00:51;;;;;;;6.95;4.10;;;;;;;;;;5030592;28;20112;-64
2022/06/07 05:03:17;;;;;;;10.18;4.10;;;;;;;;;;5030857;28;20057;-63
2022/06/07 05:05:43;;;;;;;7.03;4.55;;;;;;;;;;5030882;28;20436;-62
2022/06/07 05:08:09;;;;;;;6.65;4.10;;;;;;;;;;5030660;28;20026;-62
2022/06/07 05:10:35;;;;;;;9.75;4.53;;;;;;;;;;5030912;28;20053;-62
2022/06/07 05:13:01;;;;;;;5.55;3.92;;;;;;;;;;5030743;28;20525;-63
2022/06/07 05:15:27;;;;;;;7.57;4.82;;;;;;;;;;5031031;28;20029;-63
2022/06/07 05:17:54;;;;;;;7.32;4.65;;;;;;;;;;5030560;28;20064;-63
2022/06/07 05:20:20;;;;;;;6.05;4.32;;;;;;;;;;5030368;28;20128;-63
2022/06/07 05:22:46;;;;;;;8.15;4.88;;;;;;;;;;5030633;28;20095;-64
2022/06/07 05:25:12;;;;;;;9.63;5.05;;;;;;;;;;5030772;28;20382;-64
2022/06/07 05:27:40;;;;;;;9.57;4.72;;;;;;;;;;5030704;28;20469;-63
2022/06/07 05:30:06;;;;;;;6.72;5.10;;;;;;;;;;5029477;28;20083;-61
2022/06/07 05:32:32;;;;;;;14.98;5.47;;;;;;;;;;5029176;28;20163;-62
2022/06/07 05:34:58;;;;;;;8.75;5.38;;;;;;;;;;5029561;28;20013;-62
2022/06/07 05:37:24;;;;;;;9.40;5.20;;;;;;;;;;5029252;28;20083;-62
2022/06/07 05:39:50;;;;;;;10.20;6.00;;;;;;;;;;5026591;28;20172;-67
2022/06/07 05:42:18;;;;;;;8.57;5.43;;;;;;;;;;5029649;28;20033;-64
2022/06/07 05:44:44;;;;;;;8.65;6.28;;;;;;;;;;5032835;28;20053;-63
2022/06/07 05:47:10;;;;;;;12.25;6.13;;;;;;;;;;5032607;28;20041;-63
2022/06/07 05:49:36;;;;;;;9.20;6.30;;;;;;;;;;5033905;28;20074;-62
2022/06/07 05:52:03;;;;;;;9.80;6.22;;;;;;;;;;5034049;28;20025;-65
2022/06/07 05:54:30;;;;;;;13.10;6.72;;;;;;;;;;5034204;28;20029;-65
2022/06/07 05:56:57;;;;;;;9.27;5.85;;;;;;;;;;5032337;28;20029;-63
2022/06/07 05:59:23;;;;;;;8.98;6.45;;;;;;;;;;5032589;28;20413;-62
2022/06/07 06:01:49;;;;;;;14.48;6.30;;;;;;;;;;5033588;28;20536;-61
2022/06/07 06:04:15;;;;;;;11.32;6.40;;;;;;;;;;5034047;28;20026;-63
2022/06/07 06:06:41;;;;;;;9.25;6.25;;;;;;;;;;5033312;28;20610;-62
2022/06/07 06:11:52;;;;;;;6.88;5.85;;;;;;;;;;5033733;28;20040;-63
2022/06/07 06:14:19;;;;;;;11.05;5.90;;;;;;;;;;5033586;28;20053;-64
2022/06/07 06:16:45;;;;;;;10.50;6.13;;;;;;;;;;5033563;28;20182;-63
2022/06/07 06:19:11;;;;;;;7.40;5.90;;;;;;;;;;5032975;28;20127;-61
2022/06/07 06:21:39;;;;;;;9.80;6.72;;;;;;;;;;5033085;28;20044;-61
2022/06/07 06:24:06;;;;;;;14.45;6.70;;;;;;;;;;5033917;28;20109;-62
2022/06/07 06:26:32;;;;;;;8.48;6.40;;;;;;;;;;5033501;28;20053;-62
2022/06/07 06:28:58;;;;;;;10.80;7.30;;;;;;;;;;5033732;28;20353;-60
2022/06/07 06:31:24;;;;;;;13.32;6.60;;;;;;;;;;5033173;28;20033;-61
2022/06/07 06:33:52;;;;;;;11.85;7.20;;;;;;;;;;5032132;28;20436;-61
2022/06/07 06:36:20;;;;;;;14.10;8.20;;;;;;;;;;5033226;28;20041;-62
2022/06/07 06:38:46;;;;;;;12.80;6.75;;;;;;;;;;5032916;28;20451;-62
2022/06/07 06:41:17;;;;;;;13.15;7.22;;;;;;;;;;5032421;28;20052;-68
2022/06/07 06:43:43;;;;;;;13.77;6.82;;;;;;;;;;5031811;28;20025;-60
2022/06/07 06:46:13;;;;;;;13.38;7.18;;;;;;;;;;5031938;28;20024;-60
2022/06/07 06:48:40;;;;;;;10.00;6.88;;;;;;;;;;5031522;28;20072;-61
2022/06/07 06:51:08;;;;;;;7.93;6.20;;;;;;;;;;5031872;28;20021;-60
2022/06/07 06:53:34;;;;;;;9.10;6.20;;;;;;;;;;5031717;28;20022;-62
2022/06/07 06:56:00;;;;;;;8.70;6.15;;;;;;;;;;5031843;28;20017;-61
2022/06/07 06:58:26;;;;;;;8.07;6.30;;;;;;;;;;5031958;28;20060;-63
2022/06/07 07:01:00;;;;;;;9.23;5.68;;;;;;;;;;5031415;28;20037;-61
2022/06/07 07:03:26;;;;;;;7.78;6.13;;;;;;;;;;5029368;28;20060;-63
2022/06/07 07:05:52;;;;;;;6.95;5.55;;;;;;;;;;5031157;28;20025;-62
2022/06/07 07:08:18;;;;;;;13.60;6.72;;;;;;;;;;5032283;28;20026;-65
2022/06/07 07:10:45;;;;;;;10.80;5.90;;;;;;;;;;5032248;28;20044;-61
2022/06/07 07:13:11;;;;;;;12.27;6.10;;;;;;;;;;5031601;28;20316;-60
2022/06/07 07:15:37;;;;;;;8.75;5.55;;;;;;;;;;5032237;28;20029;-59
2022/06/07 07:18:03;;;;;;;7.15;5.40;;;;;;;;;;5032400;28;20032;-62
2022/06/07 07:20:29;;;;;;;13.93;6.05;;;;;;;;;;5032114;28;20041;-59
2022/06/07 07:22:56;;;;;;;8.15;5.80;;;;;;;;;;5032713;28;20030;-61
2022/06/07 07:25:23;;;;;;;8.55;5.57;;;;;;;;;;5032059;28;20021;-64
2022/06/07 07:27:50;;;;;;;11.13;6.22;;;;;;;;;;5032335;28;20029;-67
2022/06/07 07:30:16;;;;;;;9.73;6.00;;;;;;;;;;5032367;28;20431;-68
2022/06/07 07:32:42;;;;;;;10.68;5.88;;;;;;;;;;5032325;28;20025;-66
2022/06/07 07:35:08;;;;;;;10.95;5.88;;;;;;;;;;5032286;28;20132;-66
2022/06/07 07:37:34;;;;;;;7.53;5.95;;;;;;;;;;5032264;28;20036;-61
2022/06/07 07:40:00;;;;;;;8.88;5.70;;;;;;;;;;5031292;28;20049;-61
2022/06/07 07:42:27;;;;;;;8.32;5.88;;;;;;;;;;5031919;28;20029;-61
2022/06/07 07:44:53;;;;;;;8.75;5.40;;;;;;;;;;5031595;28;20044;-61
2022/06/07 07:47:19;;;;;;;9.02;5.72;;;;;;;;;;5031718;28;20032;-61
2022/06/07 07:49:45;;;;;;;7.72;6.20;;;;;;;;;;5031473;28;20029;-68
2022/06/07 07:52:11;;;;;;;6.60;5.90;;;;;;;;;;5032070;28;20496;-61
2022/06/07 07:54:37;;;;;;;9.68;5.65;;;;;;;;;;5032051;28;20048;-61
2022/06/07 07:57:04;;;;;;;9.20;5.85;;;;;;;;;;5032012;28;20057;-61
2022/06/07 07:59:30;;;;;;;8.77;5.30;;;;;;;;;;5031552;28;20064;-62
2022/06/07 08:01:56;;;;;;;9.25;6.30;;;;;;;;;;5030938;28;20033;-61
2022/06/07 08:04:22;;;;;;;8.18;5.85;;;;;;;;;;5031284;28;20045;-65
2022/06/07 08:06:48;;;;;;;9.98;6.20;;;;;;;;;;5030743;28;20061;-63
2022/06/07 08:09:14;;;;;;;9.32;5.95;;;;;;;;;;5030812;28;20060;-61
2022/06/07 08:11:41;;;;;;;8.30;5.20;;;;;;;;;;5031497;28;20043;-62
2022/06/07 08:14:08;;;;;;;10.35;6.03;;;;;;;;;;5031432;28;20503;-61
2022/06/07 08:16:35;;;;;;;7.40;5.55;;;;;;;;;;5031303;28;20049;-61
2022/06/07 08:19:02;;;;;;;9.00;5.75;;;;;;;;;;5031409;28;20040;-65
2022/06/07 08:21:28;;;;;;;7.60;5.75;;;;;;;;;;5031444;28;20481;-65
2022/06/07 08:23:55;;;;;;;8.38;5.65;;;;;;;;;;5031230;28;20879;-65
2022/06/07 08:26:21;;;;;;;6.97;6.10;;;;;;;;;;5031069;28;20029;-61
2022/06/07 08:28:47;;;;;;;8.27;6.10;;;;;;;;;;5031057;28;20022;-61
2022/06/07 08:31:18;;;;;;;6.70;5.40;;;;;;;;;;5030233;28;20021;-60
2022/06/07 08:39:15;;;;;;;7.32;5.72;;;;;;;;;;5028264;28;20044;-61
2022/06/07 08:41:41;;;;;;;7.90;5.60;;;;;;;;;;5029835;28;20041;-61
2022/06/07 08:44:09;;;;;;;7.05;5.53;;;;;;;;;;5029507;28;20021;-61
2022/06/07 08:46:36;;;;;;;9.25;5.80;;;;;;;;;;5029745;28;20465;-61
2022/06/07 08:49:03;;;;;;;9.13;6.20;;;;;;;;;;5029721;28;20025;-63
2022/06/07 08:51:35;;;;;;;8.35;5.82;;;;;;;;;;5029557;28;20033;-61
2022/06/07 08:54:04;;;;;;;8.65;5.50;;;;;;;;;;5029745;28;20133;-63
2022/06/07 08:56:32;;;;;;;7.03;5.35;;;;;;;;;;5029851;28;20025;-61
2022/06/07 08:59:00;;;;;;;7.13;4.03;;;;;;;;;;5029854;28;20392;-62
2022/06/07 09:01:48;;;;;;;4.35;3.80;;;;;;;;;;5029416;28;20091;-61
2022/06/07 09:04:21;;;;;;;6.68;3.28;;;;;;;;;;5025668;28;20014;-61
2022/06/07 09:06:49;;;;;;;5.70;3.47;;;;;;;;;;5027427;28;20034;-60
2022/06/07 09:09:18;;;;;;;6.32;3.55;;;;;;;;;;5029449;28;20116;-59
2022/06/07 09:14:39;;;;;;;4.93;3.50;;;;;;;;;;5027945;28;20048;-61
2022/06/07 09:17:09;;;;;;;6.43;3.75;;;;;;;;;;5028531;28;20029;-61
2022/06/07 09:19:36;;;;;;;5.00;3.78;;;;;;;;;;5033206;28;20059;-61
2022/06/07 09:22:07;;;;;;;7.40;3.60;;;;;;;;;;5033445;28;20048;-64
2022/06/07 09:24:42;;;;;;;7.27;3.80;;;;;;;;;;5033496;28;20393;-60
2022/06/07 09:27:15;;;;;;;3.92;3.50;;;;;;;;;;5031323;28;20503;-62
2022/06/07 09:29:41;;;;;;;4.60;3.63;;;;;;;;;;5033169;28;20112;-61
2022/06/07 09:32:16;;;;;;;5.07;3.78;;;;;;;;;;5033079;28;20017;-61
2022/06/07 09:34:51;;;;;;;5.43;3.40;;;;;;;;;;5033073;28;20022;-64
2022/06/07 09:37:19;;;;;;;6.45;4.13;;;;;;;;;;5033279;28;20021;-60
2022/06/07 09:39:45;;;;;;;6.97;3.88;;;;;;;;;;5029983;28;20524;-66
2022/06/07 09:42:21;;;;;;;4.82;3.67;;;;;;;;;;5033284;28;20059;-61
2022/06/07 09:44:55;;;;;;;4.78;3.08;;;;;;;;;;5033746;28;20025;-60
2022/06/07 09:47:23;;;;;;;5.68;3.20;;;;;;;;;;5033655;28;20029;-63
2022/06/07 09:49:56;;;;;;;5.22;3.33;;;;;;;;;;5030202;28;20607;-59
2022/06/07 09:52:31;;;;;;;7.95;3.63;;;;;;;;;;5033228;28;20044;-61
2022/06/07 09:55:03;;;;;;;6.72;3.25;;;;;;;;;;5032649;28;20049;-61
2022/06/07 09:57:37;;;;;;;5.47;3.58;;;;;;;;;;5032543;28;20061;-62
2022/06/07 10:00:16;;;;;;;5.70;3.60;;;;;;;;;;5030147;28;20030;-61
2022/06/07 10:02:42;;;;;;;7.10;3.50;;;;;;;;;;5033352;28;20032;-59
2022/06/07 10:05:27;;;;;;;5.85;3.65;;;;;;;;;;5033569;28;20025;-60
2022/06/07 10:08:03;;;;;;;5.03;3.35;;;;;;;;;;5033568;28;20477;-60
2022/06/07 10:10:40;;;;;;;4.93;3.53;;;;;;;;;;5033590;28;20033;-60
2022/06/07 10:13:06;;;;;;;5.15;3.65;;;;;;;;;;5033186;28;20055;-59
2022/06/07 10:15:32;;;;;;;4.22;3.83;;;;;;;;;;5033186;28;20420;-59
2022/06/07 10:18:13;;;;;;;7.65;3.55;;;;;;;;;;5033401;28;20108;-61
2022/06/07 10:20:44;;;;;;;4.78;3.15;;;;;;;;;;5033358;28;20589;-59
2022/06/07 10:23:17;;;;;;;4.38;3.42;;;;;;;;;;5033143;28;20869;-60
2022/06/07 10:25:58;;;;;;;5.85;3.50;;;;;;;;;;5033360;28;20097;-63
2022/06/07 10:28:24;;;;;;;8.90;3.27;;;;;;;;;;5032355;28;20064;-66
2022/06/07 10:31:01;;;;;;;4.00;3.60;;;;;;;;;;5033148;28;20068;-60
2022/06/07 10:33:50;;;;;;;4.55;3.25;;;;;;;;;;5033057;28;20373;-59
2022/06/07 10:36:35;;;;;;;6.35;3.30;;;;;;;;;;5030291;28;20272;-60
2022/06/07 10:39:07;;;;;;;4.18;3.50;;;;;;;;;;5032454;28;20042;-60
2022/06/07 10:41:56;;;;;;;6.88;3.35;;;;;;;;;;5033062;28;20107;-60
2022/06/07 10:44:32;;;;;;;8.32;4.07;;;;;;;;;;5010282;28;20050;-60
2022/06/07 10:47:01;;;;;;;8.88;3.50;;;;;;;;;;5010999;28;20113;-66
2022/06/07 10:49:27;;;;;;;6.38;3.47;;;;;;;;;;5010792;28;20038;-63
2022/06/07 10:54:44;;;;;;;5.75;3.38;;;;;;;;;;5007071;28;20104;-66
2022/06/07 10:57:14;;;;;;;5.13;3.20;;;;;;;;;;5009287;28;20481;-60
2022/06/07 10:59:41;;;;;;;5.47;3.35;;;;;;;;;;5008864;28;20025;-61
2022/06/07 11:02:26;;;;;;;5.00;3.30;;;;;;;;;;5009101;28;20492;-60
2022/06/07 11:10:36;;;;;;;5.05;3.67;;;;;;;;;;5008446;28;20590;-60
2022/06/07 11:13:17;;;;;;;5.03;3.58;;;;;;;;;;5009213;28;20040;-60
2022/06/07 11:15:48;;;;;;;3.90;3.50;;;;;;;;;;5009549;28;20038;-60
2022/06/07 11:18:17;;;;;;;4.25;3.45;;;;;;;;;;5006551;28;20041;-60
2022/06/07 11:20:51;;;;;;;5.03;3.22;;;;;;;;;;5014285;28;20129;-64
2022/06/07 11:23:25;;;;;;;4.50;3.38;;;;;;;;;;5031234;28;20033;-60
2022/06/07 11:26:11;;;;;;;4.97;3.00;;;;;;;;;;5031352;28;20026;-60
2022/06/07 11:28:40;;;;;;;5.60;3.25;;;;;;;;;;5026143;28;20040;-60
2022/06/07 11:31:18;;;;;;;3.78;3.30;;;;;;;;;;5023151;28;20060;-61
2022/06/07 11:33:47;;;;;;;4.20;3.60;;;;;;;;;;5029156;28;20033;-60
2022/06/07 11:36:13;;;;;;;6.38;3.05;;;;;;;;;;5025136;28;20032;-60
2022/06/07 11:41:40;;;;;;;8.30;3.60;;;;;;;;;;5029243;28;20046;-60
2022/06/07 11:44:11;;;;;;;7.32;3.42;;;;;;;;;;5030829;28;20025;-64
2022/06/07 11:46:57;;;;;;;8.20;4.05;;;;;;;;;;5030323;28;20036;-67
2022/06/07 11:49:23;;;;;;;6.32;3.20;;;;;;;;;;5028673;28;20045;-61
2022/06/07 11:52:00;;;;;;;4.57;3.28;;;;;;;;;;5029233;28;20053;-60
2022/06/07 11:54:29;;;;;;;5.80;4.03;;;;;;;;;;5030695;28;20029;-60
2022/06/07 11:57:00;;;;;;;7.55;3.72;;;;;;;;;;5031299;28;20035;-66
2022/06/07 11:59:43;;;;;;;4.35;3.50;;;;;;;;;;5030974;28;20030;-61
2022/06/07 12:02:15;;;;;;;5.20;3.53;;;;;;;;;;5031070;28;20037;-62
2022/06/07 12:04:41;;;;;;;5.72;3.90;;;;;;;;;;5030676;28;20412;-60
2022/06/07 12:07:27;;;;;;;5.20;3.55;;;;;;;;;;5030879;28;20029;-61
2022/06/07 12:09:58;;;;;;;5.65;3.65;;;;;;;;;;5029915;28;20018;-62
2022/06/07 12:12:31;;;;;;;5.43;3.83;;;;;;;;;;5031180;28;20442;-61
2022/06/07 12:15:03;;;;;;;7.45;4.20;;;;;;;;;;5031568;28;20018;-68
2022/06/07 12:17:30;;;;;;;5.68;3.92;;;;;;;;;;5031230;28;20025;-60
2022/06/07 12:19:57;;;;;;;6.75;4.22;;;;;;;;;;5030722;28;20041;-60
2022/06/07 12:22:24;;;;;;;4.95;4.10;;;;;;;;;;5030706;28;20477;-61
2022/06/07 12:24:53;;;;;;;8.18;4.45;;;;;;;;;;5031331;28;20036;-61
2022/06/07 12:27:30;;;;;;;7.03;4.40;;;;;;;;;;5031125;28;20053;-61
2022/06/07 12:30:02;;;;;;;6.97;4.75;;;;;;;;;;5030703;28;20029;-63
2022/06/07 12:32:35;;;;;;;6.00;4.43;;;;;;;;;;5030307;28;20030;-64
2022/06/07 12:35:16;;;;;;;5.32;4.63;;;;;;;;;;5030500;28;20425;-61
2022/06/07 12:37:44;;;;;;;7.50;5.07;;;;;;;;;;5030605;28;20025;-60
2022/06/07 12:40:37;;;;;;;5.55;4.95;;;;;;;;;;5030494;28;20060;-60
2022/06/07 12:43:03;;;;;;;6.45;4.80;;;;;;;;;;5008375;28;20121;-66
2022/06/07 12:45:34;;;;;;;9.55;4.97;;;;;;;;;;5008763;28;20060;-61
2022/06/07 12:48:07;;;;;;;5.70;5.07;;;;;;;;;;5008317;28;20053;-61
2022/06/07 12:50:38;;;;;;;6.45;4.95;;;;;;;;;;5008435;28;20389;-63
2022/06/07 12:53:04;;;;;;;8.77;4.83;;;;;;;;;;5008316;28;20112;-60
2022/06/07 12:55:32;;;;;;;6.93;5.05;;;;;;;;;;5009087;28;20065;-61
2022/06/07 12:58:05;;;;;;;7.10;5.20;;;;;;;;;;5008465;28;20057;-64
2022/06/07 13:00:34;;;;;;;6.75;4.68;;;;;;;;;;5008031;28;20046;-61
2022/06/07 13:03:21;;;;;;;7.35;5.05;;;;;;;;;;5008266;28;20044;-61
2022/06/07 13:05:47;;;;;;;6.85;5.30;;;;;;;;;;5008249;28;20411;-60
2022/06/07 13:08:19;;;;;;;5.90;5.30;;;;;;;;;;5008134;28;20030;-60
2022/06/07 13:10:45;;;;;;;5.88;5.28;;;;;;;;;;5007979;28;20041;-61
2022/06/07 13:13:22;;;;;;;8.05;5.25;;;;;;;;;;5007925;28;20037;-66
2022/06/07 13:15:58;;;;;;;7.45;5.10;;;;;;;;;;5008451;28;20033;-61
2022/06/07 13:18:34;;;;;;;6.28;5.65;;;;;;;;;;5008605;28;20036;-60
2022/06/07 13:21:08;;;;;;;6.82;5.50;;;;;;;;;;5029802;28;20543;-63
2022/06/07 13:23:38;;;;;;;6.90;5.22;;;;;;;;;;5029772;28;20032;-63
2022/06/07 13:26:10;;;;;;;11.45;5.75;;;;;;;;;;5029983;28;20037;-60
2022/06/07 13:28:37;;;;;;;6.18;5.50;;;;;;;;;;5028424;28;20538;-65
2022/06/07 13:31:23;;;;;;;6.03;5.28;;;;;;;;;;5029752;28;20412;-61
2022/06/07 13:33:59;;;;;;;6.40;5.38;;;;;;;;;;5030365;28;20025;-62
2022/06/07 13:36:31;;;;;;;5.97;5.28;;;;;;;;;;5025196;28;20388;-60
2022/06/07 13:38:57;;;;;;;;;;;;;;;;;;5029937;28;20045;-66
2022/06/07 13:41:24;;;;;;;8.32;5.10;;;;;;;;;;5029525;28;19978;-63
2022/06/07 13:44:09;;;;;;;6.30;5.15;;;;;;;;;;5029737;28;20090;-68
2022/06/07 13:46:39;;;;;;;7.82;5.43;;;;;;;;;;5029242;28;20504;-67
2022/06/07 13:55:18;;;;;;;9.23;5.78;;;;;;;;;;5030731;28;20519;-72
2022/06/07 13:57:45;;;;;;;7.13;5.72;;;;;;;;;;5030336;28;20037;-64
2022/06/07 14:00:14;;;;;;;8.05;5.72;;;;;;;;;;5030161;28;20061;-59
2022/06/07 14:02:42;;;;;;;7.32;5.78;;;;;;;;;;5030105;28;20029;-64
2022/06/07 14:05:25;;;;;;;7.00;5.95;;;;;;;;;;5032998;28;20025;-69
2022/06/07 14:07:51;;;;;;;8.63;6.07;;;;;;;;;;5033720;28;20091;-60
2022/06/07 14:10:18;;;;;;;8.85;5.90;;;;;;;;;;5033509;28;20112;-64
2022/06/07 14:12:44;;;;;;;6.28;5.68;;;;;;;;;;5033530;28;20036;-60
2022/06/07 14:15:10;;;;;;;6.93;5.20;;;;;;;;;;5032979;28;20024;-66
2022/06/07 14:17:37;;;;;;;7.15;5.88;;;;;;;;;;5033464;28;20029;-60
2022/06/07 14:20:05;;;;;;;6.13;5.43;;;;;;;;;;5033536;28;20123;-60
2022/06/07 14:22:33;;;;;;;6.68;5.50;;;;;;;;;;5033484;28;20031;-61
2022/06/07 14:24:59;;;;;;;7.97;5.10;;;;;;;;;;5032640;28;20059;-60
2022/06/07 14:27:27;;;;;;;6.95;5.50;;;;;;;;;;5032979;28;20108;-61
2022/06/07 14:29:53;;;;;;;12.95;5.80;;;;;;;;;;5032675;28;20021;-67
2022/06/07 14:32:21;;;;;;;7.80;5.70;;;;;;;;;;5032750;28;20021;-68
2022/06/07 14:34:48;;;;;;;10.43;5.57;;;;;;;;;;5032163;28;20072;-63
2022/06/07 14:37:15;;;;;;;8.70;5.60;;;;;;;;;;5031583;28;20075;-66
2022/06/07 14:39:43;;;;;;;8.23;5.40;;;;;;;;;;5027799;28;20080;-60
2022/06/07 14:42:10;;;;;;;6.43;5.50;;;;;;;;;;5030175;28;20049;-62
2022/06/07 14:44:36;;;;;;;7.75;5.13;;;;;;;;;;5032776;28;20036;-59
2022/06/07 14:47:02;;;;;;;7.07;5.28;;;;;;;;;;5032655;28;20053;-67
2022/06/07 14:49:31;;;;;;;8.95;5.25;;;;;;;;;;5032646;28;20026;-59
2022/06/07 14:51:57;;;;;;;5.50;4.85;;;;;;;;;;5032292;28;20026;-68
2022/06/07 14:54:33;;;;;;;9.07;5.10;;;;;;;;;;5032983;28;20070;-59
2022/06/07 14:57:00;;;;;;;7.22;5.03;;;;;;;;;;5032930;28;20486;-61
2022/06/07 14:59:27;;;;;;;11.13;5.75;;;;;;;;;;5033432;28;20041;-62
2022/06/07 15:01:58;;;;;;;7.65;5.28;;;;;;;;;;5032481;28;20772;-61
2022/06/07 15:04:26;;;;;;;6.83;5.67;;;;;;;;;;5032113;28;20380;-61
2022/06/07 15:06:52;;;;;;;6.00;5.30;;;;;;;;;;5032864;28;20033;-64
2022/06/07 15:09:20;;;;;;;7.68;5.55;;;;;;;;;;5032819;28;20531;-61
2022/06/07 15:11:47;;;;;;;5.82;5.20;;;;;;;;;;5032487;28;20835;-59
2022/06/07 15:14:15;;;;;;;9.38;5.57;;;;;;;;;;5031825;28;20033;-60
2022/06/07 15:16:43;;;;;;;7.57;5.30;;;;;;;;;;5032223;28;20523;-60
2022/06/07 15:19:13;;;;;;;7.57;4.40;;;;;;;;;;5032040;28;20377;-59
2022/06/07 15:21:40;;;;;;;7.45;5.15;;;;;;;;;;5032168;28;20044;-62
2022/06/07 15:24:06;;;;;;;9.35;4.82;;;;;;;;;;5032026;28;20021;-59
2022/06/07 15:26:32;;;;;;;8.15;4.90;;;;;;;;;;5031915;28;20021;-58